createdAt,value
2014-12-23T10:01:27.479Z,157
2014-12-23T10:01:45.932Z,156
2014-12-23T10:02:04.388Z,158
2014-12-23T10:02:22.841Z,163
2014-12-23T10:02:41.310Z,149
2014-12-23T10:02:59.827Z,145
2014-12-23T10:03:18.280Z,24
2014-12-23T10:03:36.718Z,23
2014-12-23T10:03:55.187Z,21
2014-12-23T10:04:13.643Z,21
2014-12-23T10:04:32.096Z,21
2014-12-23T10:04:50.565Z,22
2014-12-23T10:05:09.020Z,23
2014-12-23T10:05:27.473Z,23
2014-12-23T10:05:45.942Z,23
2014-12-23T10:06:04.410Z,23
2014-12-23T10:06:22.866Z,23
2014-12-23T10:06:41.319Z,24
2014-12-23T10:06:59.772Z,26
2014-12-23T10:07:18.228Z,28
2014-12-23T10:07:36.681Z,29
2014-12-23T10:07:55.134Z,29
2014-12-23T10:08:13.605Z,27
2014-12-23T10:08:32.058Z,26
2014-12-23T10:08:50.496Z,25
2014-12-23T10:09:08.964Z,24
2014-12-23T10:09:27.419Z,26
2014-12-23T10:09:45.951Z,28
2014-12-23T10:10:04.404Z,28
2014-12-23T10:10:22.860Z,27
2014-12-23T10:10:41.313Z,21
2014-12-23T10:10:59.782Z,25
2014-12-23T10:11:18.254Z,25
2014-12-23T10:11:36.691Z,27
2014-12-23T10:11:55.144Z,28
2014-12-23T10:12:13.613Z,28
2014-12-23T10:12:32.068Z,28
2014-12-23T10:12:50.506Z,27
2014-12-23T10:13:08.959Z,26
2014-12-23T10:13:27.415Z,24
2014-12-23T10:13:45.852Z,21
2014-12-23T10:14:04.321Z,18
2014-12-23T10:14:22.790Z,18
2014-12-23T10:14:41.245Z,17
2014-12-23T10:14:59.698Z,18
2014-12-23T10:15:18.136Z,18
2014-12-23T10:15:36.591Z,20
2014-12-23T10:15:55.075Z,21
2014-12-23T10:16:13.763Z,24
2014-12-23T10:16:31.983Z,24
2014-12-23T10:16:50.421Z,22
2014-12-23T10:17:08.890Z,20
2014-12-23T10:17:27.327Z,18
2014-12-23T10:17:45.767Z,17
2014-12-23T10:18:04.220Z,16
2014-12-23T10:18:22.688Z,16
2014-12-23T10:18:41.129Z,15
2014-12-23T10:18:59.582Z,15
2014-12-23T10:19:18.035Z,15
2014-12-23T10:19:36.523Z,15
2014-12-23T10:19:54.960Z,15
2014-12-23T10:20:13.413Z,16
2014-12-23T10:20:31.866Z,18
2014-12-23T10:20:50.321Z,19
2014-12-23T10:21:08.775Z,19
2014-12-23T10:21:27.228Z,18
2014-12-23T10:21:45.730Z,18
2014-12-23T10:22:04.183Z,17
2014-12-23T10:22:22.636Z,17
2014-12-23T10:22:41.120Z,16
2014-12-23T10:22:59.404Z,15
2014-12-23T10:23:17.857Z,14
2014-12-23T10:23:36.310Z,15
2014-12-23T10:23:54.766Z,17
2014-12-23T10:24:13.235Z,19
2014-12-23T10:24:31.657Z,19
2014-12-23T10:24:50.113Z,19
2014-12-23T10:25:08.566Z,18
2014-12-23T10:25:27.019Z,17
2014-12-23T10:25:45.472Z,16
2014-12-23T10:26:03.942Z,15
2014-12-23T10:26:22.395Z,14
2014-12-23T10:26:40.832Z,14
2014-12-23T10:26:59.289Z,15
2014-12-23T10:27:17.742Z,14
2014-12-23T10:27:36.179Z,14
2014-12-23T10:27:54.650Z,14
2014-12-23T10:28:13.087Z,13
2014-12-23T10:28:31.556Z,12
2014-12-23T10:28:50.025Z,11
2014-12-23T10:29:08.465Z,11
2014-12-23T10:29:26.919Z,11
2014-12-23T10:29:45.387Z,11
2014-12-23T10:30:03.843Z,12
2014-12-23T10:30:22.297Z,13
2014-12-23T10:30:40.734Z,15
2014-12-23T10:30:59.172Z,15
2014-12-23T10:31:17.627Z,14
2014-12-23T10:31:36.080Z,12
2014-12-23T10:31:54.611Z,11
2014-12-23T10:32:13.066Z,11
2014-12-23T10:32:31.535Z,11
2014-12-23T10:32:49.988Z,10
2014-12-23T10:33:08.443Z,9
2014-12-23T10:33:26.881Z,9
2014-12-23T10:33:45.349Z,9
2014-12-23T10:34:03.803Z,11
2014-12-23T10:34:22.259Z,12
2014-12-23T10:34:40.712Z,13
2014-12-23T10:34:59.149Z,16
2014-12-23T10:35:17.590Z,21
2014-12-23T10:35:36.027Z,25
2014-12-23T10:35:54.512Z,25
2014-12-23T10:36:12.981Z,23
2014-12-23T10:36:31.450Z,20
2014-12-23T10:36:49.935Z,18
2014-12-23T10:37:07.763Z,16
2014-12-23T10:37:26.204Z,16
2014-12-23T10:37:44.642Z,18
2014-12-23T10:38:03.095Z,19
2014-12-23T10:38:21.566Z,20
2014-12-23T10:38:40.003Z,19
2014-12-23T10:38:58.519Z,17
2014-12-23T10:39:16.972Z,16
2014-12-23T10:39:35.411Z,15
2014-12-23T10:39:53.896Z,15
2014-12-23T10:40:12.349Z,14
2014-12-23T10:40:30.836Z,13
2014-12-23T10:40:49.321Z,13
2014-12-23T10:41:07.758Z,13
2014-12-23T10:41:26.213Z,14
2014-12-23T10:41:44.651Z,14
2014-12-23T10:42:03.104Z,15
2014-12-23T10:42:21.557Z,16
2014-12-23T10:42:39.996Z,18
2014-12-23T10:42:58.481Z,18
2014-12-23T10:43:16.950Z,19
2014-12-23T10:43:35.389Z,19
2014-12-23T10:43:53.842Z,18
2014-12-23T10:44:12.295Z,18
2014-12-23T10:44:30.783Z,17
2014-12-23T10:44:49.220Z,17
2014-12-23T10:45:07.673Z,17
2014-12-23T10:45:26.111Z,17
2014-12-23T10:45:44.566Z,17
2014-12-23T10:46:03.003Z,19
2014-12-23T10:46:21.488Z,21
2014-12-23T10:46:39.928Z,22
2014-12-23T10:46:58.413Z,22
2014-12-23T10:47:16.850Z,22
2014-12-23T10:47:35.319Z,23
2014-12-23T10:47:53.774Z,24
2014-12-23T10:48:12.212Z,25
2014-12-23T10:48:30.665Z,27
2014-12-23T10:48:49.354Z,29
2014-12-23T10:49:07.557Z,30
2014-12-23T10:49:26.010Z,32
2014-12-23T10:49:44.450Z,35
2014-12-23T10:50:02.903Z,37
2014-12-23T10:50:21.372Z,35
2014-12-23T10:50:39.825Z,32
2014-12-23T10:50:58.282Z,29
2014-12-23T10:51:16.751Z,28
2014-12-23T10:51:35.204Z,28
2014-12-23T10:51:53.643Z,28
2014-12-23T10:52:12.128Z,29
2014-12-23T10:52:30.565Z,28
2014-12-23T10:52:49.018Z,28
2014-12-23T10:53:07.474Z,27
2014-12-23T10:53:25.911Z,31
2014-12-23T10:53:44.380Z,28
2014-12-23T10:54:02.835Z,28
2014-12-23T10:54:21.288Z,30
2014-12-23T10:54:39.741Z,31
2014-12-23T10:54:58.197Z,33
2014-12-23T10:55:16.650Z,33
2014-12-23T10:55:35.104Z,33
2014-12-23T10:55:53.557Z,31
2014-12-23T10:56:11.997Z,29
2014-12-23T10:56:30.435Z,28
2014-12-23T10:56:48.903Z,29
2014-12-23T10:57:07.343Z,30
2014-12-23T10:57:25.780Z,31
2014-12-23T10:57:44.265Z,31
2014-12-23T10:58:02.720Z,32
2014-12-23T10:58:21.220Z,32
2014-12-23T10:58:39.673Z,34
2014-12-23T10:58:58.361Z,35
2014-12-23T10:59:16.614Z,36
2014-12-23T10:59:35.082Z,36
2014-12-23T10:59:53.535Z,36
2014-12-23T11:00:11.975Z,36
2014-12-23T11:00:30.428Z,39
2014-12-23T11:00:48.881Z,42
2014-12-23T11:01:07.334Z,46
2014-12-23T11:01:25.805Z,46
2014-12-23T11:01:44.258Z,47
2014-12-23T11:02:02.696Z,47
2014-12-23T11:02:21.152Z,45
2014-12-23T11:02:39.605Z,43
2014-12-23T11:02:58.058Z,42
2014-12-23T11:03:16.498Z,44
2014-12-23T11:03:34.982Z,47
2014-12-23T11:03:53.435Z,48
2014-12-23T11:04:11.873Z,49
2014-12-23T11:04:30.312Z,48
2014-12-23T11:04:48.765Z,46
2014-12-23T11:05:07.203Z,41
2014-12-23T11:05:25.659Z,38
2014-12-23T11:05:44.112Z,37
2014-12-23T11:06:02.549Z,39
2014-12-23T11:06:21.005Z,41
2014-12-23T11:06:39.458Z,43
2014-12-23T11:06:57.926Z,44
2014-12-23T11:07:16.348Z,45
2014-12-23T11:07:34.788Z,45
2014-12-23T11:07:53.241Z,44
2014-12-23T11:08:11.678Z,43
2014-12-23T11:08:30.150Z,42
2014-12-23T11:08:48.588Z,40
2014-12-23T11:09:07.072Z,38
2014-12-23T11:09:25.525Z,36
2014-12-23T11:09:43.997Z,34
2014-12-23T11:10:02.481Z,32
2014-12-23T11:10:20.950Z,31
2014-12-23T11:10:39.390Z,31
2014-12-23T11:10:57.843Z,31
2014-12-23T11:11:16.296Z,32
2014-12-23T11:11:34.751Z,33
2014-12-23T11:11:53.204Z,35
2014-12-23T11:12:11.657Z,35
2014-12-23T11:12:30.126Z,36
2014-12-23T11:12:48.581Z,36
2014-12-23T11:13:07.081Z,35
2014-12-23T11:13:25.534Z,34
2014-12-23T11:13:44.006Z,32
2014-12-23T11:14:02.475Z,30
2014-12-23T11:14:20.928Z,28
2014-12-23T11:14:39.445Z,26
2014-12-23T11:14:57.899Z,24
2014-12-23T11:15:16.336Z,23
2014-12-23T11:15:35.024Z,23
2014-12-23T11:15:53.230Z,22
2014-12-23T11:16:11.683Z,22
2014-12-23T11:16:30.152Z,21
2014-12-23T11:16:48.607Z,22
2014-12-23T11:17:07.060Z,22
2014-12-23T11:17:25.529Z,21
2014-12-23T11:17:43.966Z,21
2014-12-23T11:18:02.437Z,21
2014-12-23T11:18:20.874Z,22
2014-12-23T11:18:39.359Z,24
2014-12-23T11:18:57.846Z,26
2014-12-23T11:19:16.284Z,29
2014-12-23T11:19:34.768Z,31
2014-12-23T11:19:53.193Z,31
2014-12-23T11:20:11.646Z,31
2014-12-23T11:20:30.099Z,27
2014-12-23T11:20:48.552Z,25
2014-12-23T11:21:07.006Z,25
2014-12-23T11:21:25.459Z,26
2014-12-23T11:21:43.897Z,28
2014-12-23T11:22:02.369Z,29
2014-12-23T11:22:20.806Z,31
2014-12-23T11:22:39.244Z,32
2014-12-23T11:22:57.699Z,34
2014-12-23T11:23:16.152Z,37
2014-12-23T11:23:34.605Z,37
2014-12-23T11:23:53.058Z,36
2014-12-23T11:24:11.514Z,36
2014-12-23T11:24:29.967Z,35
2014-12-23T11:24:48.436Z,35
2014-12-23T11:25:06.939Z,36
2014-12-23T11:25:25.392Z,35
2014-12-23T11:25:43.845Z,35
2014-12-23T11:26:02.330Z,34
2014-12-23T11:26:20.768Z,34
2014-12-23T11:26:39.268Z,34
2014-12-23T11:26:57.753Z,34
2014-12-23T11:27:16.193Z,35
2014-12-23T11:27:34.646Z,35
2014-12-23T11:27:53.084Z,34
2014-12-23T11:28:11.523Z,34
2014-12-23T11:28:29.976Z,34
2014-12-23T11:28:48.430Z,35
2014-12-23T11:29:06.914Z,38
2014-12-23T11:29:25.386Z,40
2014-12-23T11:29:43.854Z,40
2014-12-23T11:30:02.308Z,37
2014-12-23T11:30:20.778Z,34
2014-12-23T11:30:39.247Z,32
2014-12-23T11:30:57.919Z,31
2014-12-23T11:31:16.188Z,32
2014-12-23T11:31:34.672Z,32
2014-12-23T11:31:53.141Z,33
2014-12-23T11:32:11.828Z,33
2014-12-23T11:32:30.018Z,32
2014-12-23T11:32:48.721Z,30
2014-12-23T11:33:06.955Z,29
2014-12-23T11:33:25.427Z,30
2014-12-23T11:33:43.896Z,32
2014-12-23T11:34:02.411Z,34
2014-12-23T11:34:20.880Z,37
2014-12-23T11:34:39.320Z,36
2014-12-23T11:34:57.773Z,33
2014-12-23T11:35:16.226Z,30
2014-12-23T11:35:34.681Z,27
2014-12-23T11:35:53.150Z,27
2014-12-23T11:36:11.634Z,26
2014-12-23T11:36:30.089Z,26
2014-12-23T11:36:48.542Z,26
2014-12-23T11:37:06.980Z,26
2014-12-23T11:37:25.464Z,26
2014-12-23T11:37:43.920Z,26
2014-12-23T11:38:02.373Z,27
2014-12-23T11:38:20.842Z,30
2014-12-23T11:38:39.297Z,30
2014-12-23T11:38:57.750Z,31
2014-12-23T11:39:16.204Z,30
2014-12-23T11:39:34.660Z,29
2014-12-23T11:39:53.113Z,29
2014-12-23T11:40:11.566Z,29
2014-12-23T11:40:30.035Z,30
2014-12-23T11:40:48.521Z,30
2014-12-23T11:41:06.927Z,30
2014-12-23T11:41:25.412Z,29
2014-12-23T11:41:43.837Z,30
2014-12-23T11:42:02.274Z,30
2014-12-23T11:42:20.743Z,28
2014-12-23T11:42:39.212Z,26
2014-12-23T11:42:57.714Z,25
2014-12-23T11:43:16.167Z,25
2014-12-23T11:43:34.651Z,24
2014-12-23T11:43:53.122Z,22
2014-12-23T11:44:11.591Z,21
2014-12-23T11:44:30.044Z,21
2014-12-23T11:44:48.484Z,21
2014-12-23T11:45:06.937Z,21
2014-12-23T11:45:25.422Z,23
2014-12-23T11:45:43.859Z,26
2014-12-23T11:46:02.299Z,28
2014-12-23T11:46:20.752Z,28
2014-12-23T11:46:39.189Z,26
2014-12-23T11:46:57.645Z,24
2014-12-23T11:47:16.099Z,22
2014-12-23T11:47:34.536Z,20
2014-12-23T11:47:52.989Z,20
2014-12-23T11:48:11.444Z,21
2014-12-23T11:48:29.897Z,21
2014-12-23T11:48:48.335Z,22
2014-12-23T11:49:06.774Z,21
2014-12-23T11:49:25.228Z,21
2014-12-23T11:49:43.665Z,21
2014-12-23T11:50:02.137Z,21
2014-12-23T11:50:20.574Z,21
2014-12-23T11:50:39.027Z,22
2014-12-23T11:50:57.481Z,22
2014-12-23T11:51:15.951Z,22
2014-12-23T11:51:34.404Z,21
2014-12-23T11:51:52.842Z,20
2014-12-23T11:52:11.329Z,19
2014-12-23T11:52:29.782Z,18
2014-12-23T11:52:48.220Z,17
2014-12-23T11:53:06.659Z,18
2014-12-23T11:53:25.097Z,18
2014-12-23T11:53:43.581Z,19
2014-12-23T11:54:02.034Z,20
2014-12-23T11:54:20.506Z,21
2014-12-23T11:54:38.944Z,22
2014-12-23T11:54:57.397Z,24
2014-12-23T11:55:15.852Z,25
2014-12-23T11:55:34.524Z,29
2014-12-23T11:55:52.743Z,32
2014-12-23T11:56:11.180Z,33
2014-12-23T11:56:29.635Z,34
2014-12-23T11:56:48.088Z,33
2014-12-23T11:57:06.573Z,33
2014-12-23T11:57:25.012Z,33
2014-12-23T11:57:43.481Z,30
2014-12-23T11:58:01.934Z,27
2014-12-23T11:58:20.375Z,24
2014-12-23T11:58:38.828Z,23
2014-12-23T11:58:57.312Z,23
2014-12-23T11:59:15.750Z,23
2014-12-23T11:59:34.205Z,24
2014-12-23T11:59:52.658Z,24
2014-12-23T12:00:11.111Z,23
2014-12-23T12:00:29.567Z,22
2014-12-23T12:00:48.005Z,22
2014-12-23T12:01:06.505Z,23
2014-12-23T12:01:24.944Z,26
2014-12-23T12:01:43.397Z,26
2014-12-23T12:02:01.866Z,25
2014-12-23T12:02:20.319Z,24
2014-12-23T12:02:38.760Z,23
2014-12-23T12:02:57.213Z,22
2014-12-23T12:03:15.681Z,21
2014-12-23T12:03:34.137Z,21
2014-12-23T12:03:52.558Z,21
2014-12-23T12:04:11.012Z,22
2014-12-23T12:04:29.449Z,22
2014-12-23T12:04:47.920Z,23
2014-12-23T12:05:06.389Z,25
2014-12-23T12:05:24.826Z,26
2014-12-23T12:05:43.282Z,29
2014-12-23T12:06:01.720Z,30
2014-12-23T12:06:20.173Z,32
2014-12-23T12:06:38.659Z,32
2014-12-23T12:06:57.112Z,31
2014-12-23T12:07:15.550Z,28
2014-12-23T12:07:34.003Z,25
2014-12-23T12:07:52.474Z,22
2014-12-23T12:08:10.927Z,20
2014-12-23T12:08:29.427Z,18
2014-12-23T12:08:47.899Z,17
2014-12-23T12:09:06.367Z,16
2014-12-23T12:09:24.805Z,17
2014-12-23T12:09:43.276Z,18
2014-12-23T12:10:01.744Z,21
2014-12-23T12:10:20.166Z,24
2014-12-23T12:10:38.619Z,27
2014-12-23T12:10:57.060Z,28
2014-12-23T12:11:15.513Z,28
2014-12-23T12:11:33.982Z,28
2014-12-23T12:11:52.421Z,27
2014-12-23T12:12:10.874Z,26
2014-12-23T12:12:29.343Z,25
2014-12-23T12:12:47.796Z,25
2014-12-23T12:13:06.237Z,24
2014-12-23T12:13:24.690Z,22
2014-12-23T12:13:43.174Z,22
2014-12-23T12:14:01.614Z,24
2014-12-23T12:14:20.067Z,27
2014-12-23T12:14:38.504Z,29
2014-12-23T12:14:56.959Z,30
2014-12-23T12:15:15.397Z,31
2014-12-23T12:15:33.866Z,31
2014-12-23T12:15:52.319Z,30
2014-12-23T12:16:10.759Z,29
2014-12-23T12:16:29.212Z,28
2014-12-23T12:16:47.666Z,30
2014-12-23T12:17:06.152Z,30
2014-12-23T12:17:24.636Z,29
2014-12-23T12:17:43.074Z,27
2014-12-23T12:18:01.545Z,25
2014-12-23T12:18:20.013Z,23
2014-12-23T12:18:38.451Z,23
2014-12-23T12:18:56.951Z,25
2014-12-23T12:19:15.376Z,27
2014-12-23T12:19:33.829Z,29
2014-12-23T12:19:52.282Z,32
2014-12-23T12:20:10.753Z,34
2014-12-23T12:20:29.253Z,36
2014-12-23T12:20:47.706Z,36
2014-12-23T12:21:06.143Z,35
2014-12-23T12:21:24.599Z,33
2014-12-23T12:21:43.068Z,32
2014-12-23T12:22:01.521Z,30
2014-12-23T12:22:20.008Z,29
2014-12-23T12:22:38.461Z,28
2014-12-23T12:22:56.898Z,29
2014-12-23T12:23:15.339Z,31
2014-12-23T12:23:33.792Z,33
2014-12-23T12:23:52.229Z,34
2014-12-23T12:24:10.698Z,35
2014-12-23T12:24:29.169Z,33
2014-12-23T12:24:47.622Z,32
2014-12-23T12:25:06.091Z,31
2014-12-23T12:25:24.546Z,30
2014-12-23T12:25:42.983Z,29
2014-12-23T12:26:01.437Z,29
2014-12-23T12:26:19.876Z,28
2014-12-23T12:26:38.345Z,32
2014-12-23T12:26:56.782Z,33
2014-12-23T12:27:15.235Z,34
2014-12-23T12:27:33.692Z,32
2014-12-23T12:27:52.176Z,30
2014-12-23T12:28:10.613Z,28
2014-12-23T12:28:29.084Z,26
2014-12-23T12:28:47.553Z,25
2014-12-23T12:29:06.006Z,25
2014-12-23T12:29:24.459Z,25
2014-12-23T12:29:42.930Z,26
2014-12-23T12:30:01.367Z,27
2014-12-23T12:30:19.805Z,28
2014-12-23T12:30:38.292Z,29
2014-12-23T12:30:56.745Z,29
2014-12-23T12:31:15.183Z,28
2014-12-23T12:31:33.622Z,26
2014-12-23T12:31:52.107Z,24
2014-12-23T12:32:10.544Z,22
2014-12-23T12:32:29.044Z,20
2014-12-23T12:32:47.516Z,19
2014-12-23T12:33:05.969Z,17
2014-12-23T12:33:24.454Z,15
2014-12-23T12:33:42.940Z,14
2014-12-23T12:34:01.409Z,14
2014-12-23T12:34:19.862Z,15
2014-12-23T12:34:38.317Z,17
2014-12-23T12:34:56.770Z,19
2014-12-23T12:35:15.223Z,22
2014-12-23T12:35:33.692Z,21
2014-12-23T12:35:52.148Z,20
2014-12-23T12:36:10.586Z,19
2014-12-23T12:36:29.023Z,18
2014-12-23T12:36:47.479Z,17
2014-12-23T12:37:05.948Z,16
2014-12-23T12:37:24.401Z,15
2014-12-23T12:37:42.870Z,15
2014-12-23T12:38:01.325Z,15
2014-12-23T12:38:19.778Z,15
2014-12-23T12:38:38.216Z,15
2014-12-23T12:38:56.703Z,15
2014-12-23T12:39:15.140Z,17
2014-12-23T12:39:33.562Z,20
2014-12-23T12:39:52.032Z,25
2014-12-23T12:40:10.485Z,29
2014-12-23T12:40:28.970Z,31
2014-12-23T12:40:47.438Z,30
2014-12-23T12:41:05.926Z,28
2014-12-23T12:41:24.379Z,26
2014-12-23T12:41:42.832Z,24
2014-12-23T12:42:01.287Z,23
2014-12-23T12:42:19.771Z,23
2014-12-23T12:42:38.225Z,24
2014-12-23T12:42:56.712Z,24
2014-12-23T12:43:15.149Z,25
2014-12-23T12:43:33.603Z,26
2014-12-23T12:43:52.056Z,27
2014-12-23T12:44:10.526Z,28
2014-12-23T12:44:29.026Z,28
2014-12-23T12:44:47.464Z,27
2014-12-23T12:45:05.967Z,27
2014-12-23T12:45:24.404Z,26
2014-12-23T12:45:42.858Z,25
2014-12-23T12:46:01.358Z,23
2014-12-23T12:46:19.828Z,25
2014-12-23T12:46:38.281Z,25
2014-12-23T12:46:56.766Z,26
2014-12-23T12:47:15.221Z,26
2014-12-23T12:47:33.705Z,25
2014-12-23T12:47:52.158Z,24
2014-12-23T12:48:10.599Z,22
2014-12-23T12:48:29.052Z,20
2014-12-23T12:48:47.505Z,18
2014-12-23T12:49:05.974Z,16
2014-12-23T12:49:24.445Z,15
2014-12-23T12:49:42.929Z,16
2014-12-23T12:50:01.382Z,18
2014-12-23T12:50:19.838Z,18
2014-12-23T12:50:38.323Z,17
2014-12-23T12:50:56.823Z,17
2014-12-23T12:51:15.293Z,18
2014-12-23T12:51:33.731Z,18
2014-12-23T12:51:52.215Z,17
2014-12-23T12:52:10.653Z,16
2014-12-23T12:52:29.108Z,15
2014-12-23T12:52:47.592Z,15
2014-12-23T12:53:06.045Z,15
2014-12-23T12:53:24.486Z,16
2014-12-23T12:53:42.923Z,17
2014-12-23T12:54:01.392Z,17
2014-12-23T12:54:19.845Z,18
2014-12-23T12:54:38.300Z,19
2014-12-23T12:54:56.785Z,20
2014-12-23T12:55:15.222Z,22
2014-12-23T12:55:33.725Z,24
2014-12-23T12:55:52.178Z,27
2014-12-23T12:56:10.616Z,31
2014-12-23T12:56:29.071Z,35
2014-12-23T12:56:47.540Z,36
2014-12-23T12:57:05.977Z,36
2014-12-23T12:57:24.430Z,35
2014-12-23T12:57:42.870Z,36
2014-12-23T12:58:01.323Z,35
2014-12-23T12:58:19.807Z,36
2014-12-23T12:58:38.263Z,36
2014-12-23T12:58:56.716Z,37
2014-12-23T12:59:15.184Z,38
2014-12-23T12:59:33.641Z,37
2014-12-23T12:59:52.141Z,35
2014-12-23T13:00:10.562Z,35
2014-12-23T13:00:29.016Z,34
2014-12-23T13:00:47.472Z,32
2014-12-23T13:01:05.925Z,31
2014-12-23T13:01:24.378Z,31
2014-12-23T13:01:42.833Z,29
2014-12-23T13:02:01.286Z,28
2014-12-23T13:02:19.755Z,26
2014-12-23T13:02:38.208Z,24
2014-12-23T13:02:56.663Z,22
2014-12-23T13:03:15.132Z,21
2014-12-23T13:03:33.585Z,20
2014-12-23T13:03:52.057Z,21
2014-12-23T13:04:10.494Z,20
2014-12-23T13:04:28.947Z,20
2014-12-23T13:04:47.403Z,22
2014-12-23T13:05:05.856Z,24
2014-12-23T13:05:24.293Z,25
2014-12-23T13:05:42.762Z,26
2014-12-23T13:06:01.234Z,25
2014-12-23T13:06:19.718Z,25
2014-12-23T13:06:38.156Z,24
2014-12-23T13:06:56.610Z,23
2014-12-23T13:07:15.063Z,23
2014-12-23T13:07:33.516Z,21
2014-12-23T13:07:51.972Z,19
2014-12-23T13:08:10.410Z,18
2014-12-23T13:08:28.863Z,17
2014-12-23T13:08:47.300Z,17
2014-12-23T13:09:05.756Z,18
2014-12-23T13:09:24.209Z,20
2014-12-23T13:09:42.647Z,21
2014-12-23T13:10:01.102Z,20
2014-12-23T13:10:19.555Z,21
2014-12-23T13:10:38.008Z,23
2014-12-23T13:10:56.477Z,23
2014-12-23T13:11:14.917Z,21
2014-12-23T13:11:33.417Z,19
2014-12-23T13:11:51.870Z,16
2014-12-23T13:12:10.310Z,14
2014-12-23T13:12:28.763Z,11
2014-12-23T13:12:47.216Z,10
2014-12-23T13:13:05.656Z,9
2014-12-23T13:13:24.125Z,9
2014-12-23T13:13:42.609Z,10
2014-12-23T13:14:01.047Z,10
2014-12-23T13:14:19.502Z,10
2014-12-23T13:14:37.955Z,10
2014-12-23T13:14:56.424Z,9
2014-12-23T13:15:14.880Z,9
2014-12-23T13:15:33.333Z,9
2014-12-23T13:15:51.755Z,9
2014-12-23T13:16:10.211Z,9
2014-12-23T13:16:28.648Z,8
2014-12-23T13:16:47.101Z,8
2014-12-23T13:17:05.586Z,8
2014-12-23T13:17:24.041Z,8
2014-12-23T13:17:42.478Z,9
2014-12-23T13:18:00.947Z,10
2014-12-23T13:18:19.402Z,10
2014-12-23T13:18:37.855Z,11
2014-12-23T13:18:56.324Z,11
2014-12-23T13:19:14.762Z,12
2014-12-23T13:19:33.218Z,14
2014-12-23T13:19:51.671Z,16
2014-12-23T13:20:10.108Z,17
2014-12-23T13:20:28.564Z,18
2014-12-23T13:20:47.048Z,20
2014-12-23T13:21:05.532Z,22
2014-12-23T13:21:23.973Z,25
2014-12-23T13:21:42.442Z,28
2014-12-23T13:22:00.926Z,31
2014-12-23T13:22:19.395Z,31
2014-12-23T13:22:37.834Z,31
2014-12-23T13:22:56.287Z,31
2014-12-23T13:23:14.740Z,31
2014-12-23T13:23:33.196Z,29
2014-12-23T13:23:51.633Z,28
2014-12-23T13:24:10.086Z,27
2014-12-23T13:24:28.541Z,27
2014-12-23T13:24:46.979Z,27
2014-12-23T13:25:05.479Z,28
2014-12-23T13:25:23.948Z,28
2014-12-23T13:25:42.497Z,28
2014-12-23T13:26:00.935Z,28
2014-12-23T13:26:19.435Z,27
2014-12-23T13:26:37.890Z,27
2014-12-23T13:26:56.359Z,27
2014-12-23T13:27:14.843Z,26
2014-12-23T13:27:33.281Z,25
2014-12-23T13:27:51.783Z,25
2014-12-23T13:28:10.220Z,25
2014-12-23T13:28:28.705Z,25
2014-12-23T13:28:47.161Z,24
2014-12-23T13:29:05.598Z,24
2014-12-23T13:29:24.036Z,23
2014-12-23T13:29:42.492Z,21
2014-12-23T13:30:00.945Z,20
2014-12-23T13:30:19.461Z,19
2014-12-23T13:30:37.929Z,17
2014-12-23T13:30:56.400Z,17
2014-12-23T13:31:14.853Z,16
2014-12-23T13:31:33.338Z,15
2014-12-23T13:31:51.793Z,13
2014-12-23T13:32:10.230Z,13
2014-12-23T13:32:28.715Z,12
2014-12-23T13:32:47.154Z,12
2014-12-23T13:33:05.607Z,13
2014-12-23T13:33:24.092Z,12
2014-12-23T13:33:42.529Z,11
2014-12-23T13:34:00.985Z,11
2014-12-23T13:34:19.423Z,11
2014-12-23T13:34:37.876Z,12
2014-12-23T13:34:56.347Z,13
2014-12-23T13:35:14.800Z,12
2014-12-23T13:35:33.268Z,13
2014-12-23T13:35:51.725Z,12
2014-12-23T13:36:10.178Z,12
2014-12-23T13:36:28.662Z,11
2014-12-23T13:36:47.115Z,10
2014-12-23T13:37:05.602Z,10
2014-12-23T13:37:24.055Z,10
2014-12-23T13:37:42.508Z,10
2014-12-23T13:38:00.947Z,11
2014-12-23T13:38:19.400Z,11
2014-12-23T13:38:37.838Z,11
2014-12-23T13:38:56.322Z,11
2014-12-23T13:39:14.794Z,11
2014-12-23T13:39:33.294Z,11
2014-12-23T13:39:51.747Z,10
2014-12-23T13:40:10.219Z,9
2014-12-23T13:40:28.656Z,9
2014-12-23T13:40:47.110Z,9
2014-12-23T13:41:05.548Z,10
2014-12-23T13:41:23.986Z,10
2014-12-23T13:41:42.439Z,11
2014-12-23T13:42:00.892Z,11
2014-12-23T13:42:19.364Z,12
2014-12-23T13:42:37.832Z,12
2014-12-23T13:42:56.270Z,12
2014-12-23T13:43:14.709Z,12
2014-12-23T13:43:33.162Z,12
2014-12-23T13:43:51.662Z,12
2014-12-23T13:44:10.178Z,11
2014-12-23T13:44:28.634Z,11
2014-12-23T13:44:47.056Z,11
2014-12-23T13:45:05.509Z,11
2014-12-23T13:45:23.981Z,12
2014-12-23T13:45:42.403Z,13
2014-12-23T13:46:00.840Z,13
2014-12-23T13:46:19.295Z,13
2014-12-23T13:46:37.749Z,12
2014-12-23T13:46:56.202Z,11
2014-12-23T13:47:14.686Z,11
2014-12-23T13:47:33.188Z,12
2014-12-23T13:47:51.626Z,14
2014-12-23T13:48:10.110Z,14
2014-12-23T13:48:28.612Z,14
2014-12-23T13:48:47.065Z,12
2014-12-23T13:49:05.503Z,12
2014-12-23T13:49:23.989Z,11
2014-12-23T13:49:42.426Z,10
2014-12-23T13:50:00.880Z,10
2014-12-23T13:50:19.333Z,10
2014-12-23T13:50:37.773Z,10
2014-12-23T13:50:56.226Z,9
2014-12-23T13:51:14.679Z,9
2014-12-23T13:51:33.119Z,9
2014-12-23T13:51:51.572Z,8
2014-12-23T13:52:10.041Z,8
2014-12-23T13:52:28.494Z,8
2014-12-23T13:52:46.965Z,8
2014-12-23T13:53:05.418Z,7
2014-12-23T13:53:23.887Z,8
2014-12-23T13:53:42.358Z,8
2014-12-23T13:54:00.843Z,8
2014-12-23T13:54:19.296Z,7
2014-12-23T13:54:37.767Z,7
2014-12-23T13:54:56.204Z,7
2014-12-23T13:55:14.642Z,7
2014-12-23T13:55:33.095Z,7
2014-12-23T13:55:51.583Z,6
2014-12-23T13:56:10.036Z,6
2014-12-23T13:56:28.474Z,6
2014-12-23T13:56:46.912Z,6
2014-12-23T13:57:05.350Z,7
2014-12-23T13:57:23.834Z,7
2014-12-23T13:57:42.289Z,7
2014-12-23T13:58:00.742Z,6
2014-12-23T13:58:19.180Z,5
2014-12-23T13:58:37.633Z,5
2014-12-23T13:58:56.074Z,5
2014-12-23T13:59:14.528Z,6
2014-12-23T13:59:33.043Z,6
2014-12-23T13:59:51.483Z,7
2014-12-23T14:00:09.951Z,7
2014-12-23T14:00:28.436Z,7
2014-12-23T14:00:46.922Z,7
2014-12-23T14:01:05.360Z,8
2014-12-23T14:01:23.797Z,8
2014-12-23T14:01:42.250Z,8
2014-12-23T14:02:00.706Z,7
2014-12-23T14:02:19.144Z,6
2014-12-23T14:02:37.597Z,5
2014-12-23T14:02:56.052Z,4
2014-12-23T14:03:14.490Z,4
2014-12-23T14:03:33.005Z,4
2014-12-23T14:03:51.443Z,4
2014-12-23T14:04:09.929Z,3
2014-12-23T14:04:28.367Z,4
2014-12-23T14:04:46.820Z,3
2014-12-23T14:05:05.260Z,2
2014-12-23T14:05:23.713Z,2
2014-12-23T14:05:42.151Z,2
2014-12-23T14:06:00.590Z,2
2014-12-23T14:06:19.044Z,2
2014-12-23T14:06:37.512Z,2
2014-12-23T14:06:55.965Z,2
2014-12-23T14:07:14.406Z,2
2014-12-23T14:07:32.859Z,3
2014-12-23T14:07:51.297Z,3
2014-12-23T14:08:09.783Z,2
2014-12-23T14:08:28.267Z,2
2014-12-23T14:08:46.720Z,2
2014-12-23T14:09:05.158Z,2
2014-12-23T14:09:23.644Z,2
2014-12-23T14:09:42.082Z,2
2014-12-23T14:10:00.519Z,2
2014-12-23T14:10:18.975Z,3
2014-12-23T14:10:37.413Z,3
2014-12-23T14:10:55.866Z,2
2014-12-23T14:11:14.321Z,2
2014-12-23T14:11:32.774Z,2
2014-12-23T14:11:51.212Z,2
2014-12-23T14:12:09.665Z,2
2014-12-23T14:12:28.105Z,2
2014-12-23T14:12:46.559Z,2
2014-12-23T14:13:04.996Z,2
2014-12-23T14:13:23.451Z,2
2014-12-23T14:13:41.998Z,3
2014-12-23T14:14:00.451Z,3
2014-12-23T14:14:18.922Z,2
2014-12-23T14:14:37.375Z,2
2014-12-23T14:14:55.859Z,3
2014-12-23T14:15:14.297Z,3
2014-12-23T14:15:32.753Z,3
2014-12-23T14:15:51.206Z,3
2014-12-23T14:16:09.675Z,3
2014-12-23T14:16:28.114Z,3
2014-12-23T14:16:46.568Z,3
2014-12-23T14:17:05.005Z,3
2014-12-23T14:17:23.443Z,3
2014-12-23T14:17:41.899Z,3
2014-12-23T14:18:00.336Z,3
2014-12-23T14:18:18.821Z,3
2014-12-23T14:18:37.291Z,3
2014-12-23T14:18:55.729Z,3
2014-12-23T14:19:14.198Z,3
2014-12-23T14:19:32.684Z,3
2014-12-23T14:19:51.137Z,3
2014-12-23T14:20:09.575Z,3
2014-12-23T14:20:28.012Z,3
2014-12-23T14:20:46.468Z,3
2014-12-23T14:21:04.921Z,4
2014-12-23T14:21:23.374Z,4
2014-12-23T14:21:41.830Z,4
2014-12-23T14:22:00.267Z,4
2014-12-23T14:22:18.767Z,5
2014-12-23T14:22:37.208Z,5
2014-12-23T14:22:55.676Z,6
2014-12-23T14:23:14.145Z,6
2014-12-23T14:23:32.583Z,6
2014-12-23T14:23:51.038Z,6
2014-12-23T14:24:09.506Z,5
2014-12-23T14:24:27.991Z,5
2014-12-23T14:24:46.446Z,4
2014-12-23T14:25:04.883Z,5
2014-12-23T14:25:23.337Z,4
2014-12-23T14:25:41.774Z,4
2014-12-23T14:26:00.214Z,4